sensor_id;sensor_type;location;lat;lon;timestamp;pressure;altitude;pressure_sealevel;temperature;humidity
21096;BME280;10706;49.036;12.112;2023-05-16T00:00:07;97308.25;;;8.91;100.00
21096;BME280;10706;49.036;12.112;2023-05-16T00:02:34;97297.88;;;8.90;100.00
21096;BME280;10706;49.036;12.112;2023-05-16T00:05:02;97297.31;;;8.88;100.00
21096;BME280;10706;49.036;12.112;2023-05-16T00:07:29;97290.34;;;8.87;100.00
21096;BME280;10706;49.036;12.112;2023-05-16T00:09:55;97295.09;;;8.85;100.00
21096;BME280;10706;49.036;12.112;2023-05-16T00:12:21;97291.88;;;8.83;100.00
21096;BME280;10706;49.036;12.112;2023-05-16T00:14:47;97295.78;;;8.80;100.00
21096;BME280;10706;49.036;12.112;2023-05-16T00:17:14;97288.50;;;8.75;100.00
21096;BME280;10706;49.036;12.112;2023-05-16T00:19:42;97289.81;;;8.73;100.00
21096;BME280;10706;49.036;12.112;2023-05-16T00:22:09;97287.59;;;8.70;100.00
21096;BME280;10706;49.036;12.112;2023-05-16T00:24:36;97291.28;;;8.69;100.00
21096;BME280;10706;49.036;12.112;2023-05-16T00:27:02;97290.50;;;8.68;100.00
21096;BME280;10706;49.036;12.112;2023-05-16T00:29:30;97291.56;;;8.67;100.00
21096;BME280;10706;49.036;12.112;2023-05-16T00:31:56;97288.31;;;8.65;100.00
21096;BME280;10706;49.036;12.112;2023-05-16T00:34:22;97290.72;;;8.67;100.00
21096;BME280;10706;49.036;12.112;2023-05-16T00:36:49;97281.59;;;8.63;100.00
21096;BME280;10706;49.036;12.112;2023-05-16T00:39:15;97290.84;;;8.60;100.00
21096;BME280;10706;49.036;12.112;2023-05-16T00:41:41;97282.06;;;8.60;100.00
21096;BME280;10706;49.036;12.112;2023-05-16T00:44:07;97283.56;;;8.55;100.00
21096;BME280;10706;49.036;12.112;2023-05-16T00:46:34;97291.66;;;8.61;100.00
21096;BME280;10706;49.036;12.112;2023-05-16T00:49:00;97287.84;;;8.56;100.00
21096;BME280;10706;49.036;12.112;2023-05-16T00:51:26;97288.88;;;8.55;100.00
21096;BME280;10706;49.036;12.112;2023-05-16T00:53:52;97284.63;;;8.54;100.00
21096;BME280;10706;49.036;12.112;2023-05-16T00:56:20;97290.16;;;8.53;100.00
21096;BME280;10706;49.036;12.112;2023-05-16T00:58:46;97285.19;;;8.56;100.00
21096;BME280;10706;49.036;12.112;2023-05-16T01:01:12;97279.41;;;8.60;100.00
21096;BME280;10706;49.036;12.112;2023-05-16T01:03:39;97280.44;;;8.59;100.00
21096;BME280;10706;49.036;12.112;2023-05-16T01:06:05;97276.16;;;8.57;100.00
21096;BME280;10706;49.036;12.112;2023-05-16T01:08:31;97275.69;;;8.61;100.00
21096;BME280;10706;49.036;12.112;2023-05-16T01:11:26;97267.47;;;8.62;100.00
21096;BME280;10706;49.036;12.112;2023-05-16T01:17:06;97279.88;;;8.56;100.00
21096;BME280;10706;49.036;12.112;2023-05-16T01:19:58;97278.72;;;8.52;100.00
21096;BME280;10706;49.036;12.112;2023-05-16T01:27:58;97274.53;;;8.33;100.00
21096;BME280;10706;49.036;12.112;2023-05-16T01:30:24;97265.19;;;8.42;100.00
21096;BME280;10706;49.036;12.112;2023-05-16T01:32:50;97266.66;;;8.38;100.00
21096;BME280;10706;49.036;12.112;2023-05-16T01:35:16;97271.41;;;8.36;100.00
21096;BME280;10706;49.036;12.112;2023-05-16T01:38:04;97265.50;;;8.34;100.00
21096;BME280;10706;49.036;12.112;2023-05-16T01:41:02;97262.06;;;8.33;100.00
21096;BME280;10706;49.036;12.112;2023-05-16T01:43:36;97272.09;;;8.31;100.00
21096;BME280;10706;49.036;12.112;2023-05-16T01:46:13;97275.59;;;8.32;100.00
21096;BME280;10706;49.036;12.112;2023-05-16T01:48:57;97268.97;;;8.34;100.00
21096;BME280;10706;49.036;12.112;2023-05-16T01:51:28;97265.88;;;8.37;100.00
21096;BME280;10706;49.036;12.112;2023-05-16T01:54:04;97265.50;;;8.34;100.00
21096;BME280;10706;49.036;12.112;2023-05-16T01:56:30;97268.75;;;8.36;100.00
21096;BME280;10706;49.036;12.112;2023-05-16T01:58:57;97272.69;;;8.33;100.00
21096;BME280;10706;49.036;12.112;2023-05-16T02:01:24;97267.13;;;8.35;100.00
21096;BME280;10706;49.036;12.112;2023-05-16T02:03:49;97265.03;;;8.37;100.00
21096;BME280;10706;49.036;12.112;2023-05-16T02:06:16;97263.53;;;8.29;100.00
21096;BME280;10706;49.036;12.112;2023-05-16T02:08:41;97274.53;;;8.21;100.00
21096;BME280;10706;49.036;12.112;2023-05-16T02:11:07;97278.94;;;8.15;100.00
21096;BME280;10706;49.036;12.112;2023-05-16T02:13:33;97281.47;;;8.10;100.00
21096;BME280;10706;49.036;12.112;2023-05-16T02:15:59;97272.91;;;8.20;100.00
21096;BME280;10706;49.036;12.112;2023-05-16T02:18:25;97279.06;;;8.21;100.00
21096;BME280;10706;49.036;12.112;2023-05-16T02:20:52;97268.88;;;8.17;100.00
21096;BME280;10706;49.036;12.112;2023-05-16T02:23:18;97265.50;;;8.10;100.00
21096;BME280;10706;49.036;12.112;2023-05-16T02:25:44;97270.03;;;8.10;100.00
21096;BME280;10706;49.036;12.112;2023-05-16T02:28:09;97269.91;;;8.05;100.00
21096;BME280;10706;49.036;12.112;2023-05-16T02:30:35;97277.88;;;8.05;100.00
21096;BME280;10706;49.036;12.112;2023-05-16T02:33:01;97266.22;;;8.06;100.00
21096;BME280;10706;49.036;12.112;2023-05-16T02:35:26;97265.38;;;7.93;100.00
21096;BME280;10706;49.036;12.112;2023-05-16T02:37:52;97258.47;;;7.92;100.00
21096;BME280;10706;49.036;12.112;2023-05-16T02:40:18;97259.25;;;7.93;100.00
21096;BME280;10706;49.036;12.112;2023-05-16T02:42:44;97264.47;;;8.00;100.00
21096;BME280;10706;49.036;12.112;2023-05-16T02:45:10;97276.50;;;8.02;100.00
21096;BME280;10706;49.036;12.112;2023-05-16T02:47:35;97274.50;;;7.97;100.00
21096;BME280;10706;49.036;12.112;2023-05-16T02:50:02;97273.25;;;7.88;100.00
21096;BME280;10706;49.036;12.112;2023-05-16T02:52:28;97277.75;;;7.88;100.00
21096;BME280;10706;49.036;12.112;2023-05-16T02:54:54;97274.06;;;7.89;100.00
21096;BME280;10706;49.036;12.112;2023-05-16T02:57:20;97276.38;;;7.97;100.00
21096;BME280;10706;49.036;12.112;2023-05-16T02:59:45;97280.97;;;7.90;100.00
21096;BME280;10706;49.036;12.112;2023-05-16T03:02:11;97284.19;;;7.80;100.00
21096;BME280;10706;49.036;12.112;2023-05-16T03:04:37;97282.34;;;7.81;100.00
21096;BME280;10706;49.036;12.112;2023-05-16T03:07:03;97284.78;;;7.82;100.00
21096;BME280;10706;49.036;12.112;2023-05-16T03:09:29;97285.94;;;7.86;100.00
21096;BME280;10706;49.036;12.112;2023-05-16T03:11:54;97294.16;;;7.85;100.00
21096;BME280;10706;49.036;12.112;2023-05-16T03:14:20;97292.09;;;7.87;100.00
21096;BME280;10706;49.036;12.112;2023-05-16T03:16:46;97294.03;;;7.91;100.00
21096;BME280;10706;49.036;12.112;2023-05-16T03:19:12;97295.19;;;7.84;100.00
21096;BME280;10706;49.036;12.112;2023-05-16T03:21:38;97293.91;;;7.74;100.00
21096;BME280;10706;49.036;12.112;2023-05-16T03:24:04;97299.22;;;7.74;100.00
21096;BME280;10706;49.036;12.112;2023-05-16T03:26:30;97306.38;;;7.74;100.00
21096;BME280;10706;49.036;12.112;2023-05-16T03:28:56;97300.50;;;7.84;100.00
21096;BME280;10706;49.036;12.112;2023-05-16T03:31:22;97294.03;;;7.91;100.00
21096;BME280;10706;49.036;12.112;2023-05-16T03:33:47;97296.13;;;8.01;100.00
21096;BME280;10706;49.036;12.112;2023-05-16T03:36:13;97301.78;;;7.93;100.00
21096;BME280;10706;49.036;12.112;2023-05-16T03:38:39;97300.06;;;7.87;100.00
21096;BME280;10706;49.036;12.112;2023-05-16T03:41:05;97310.91;;;7.85;100.00
21096;BME280;10706;49.036;12.112;2023-05-16T03:43:31;97303.44;;;7.94;100.00
21096;BME280;10706;49.036;12.112;2023-05-16T03:45:56;97308.41;;;8.02;100.00
21096;BME280;10706;49.036;12.112;2023-05-16T03:48:22;97309.78;;;8.05;100.00
21096;BME280;10706;49.036;12.112;2023-05-16T03:50:48;97308.75;;;7.94;100.00
21096;BME280;10706;49.036;12.112;2023-05-16T03:53:13;97307.09;;;7.93;100.00
21096;BME280;10706;49.036;12.112;2023-05-16T03:55:39;97304.53;;;7.86;100.00
21096;BME280;10706;49.036;12.112;2023-05-16T03:58:05;97305.47;;;7.92;100.00
21096;BME280;10706;49.036;12.112;2023-05-16T04:00:32;97308.03;;;7.98;100.00
21096;BME280;10706;49.036;12.112;2023-05-16T04:02:59;97304.69;;;7.91;100.00
21096;BME280;10706;49.036;12.112;2023-05-16T04:05:24;97309.41;;;7.89;100.00
21096;BME280;10706;49.036;12.112;2023-05-16T04:07:50;97317.75;;;7.93;100.00
21096;BME280;10706;49.036;12.112;2023-05-16T04:10:16;97315.66;;;7.95;100.00
21096;BME280;10706;49.036;12.112;2023-05-16T04:12:41;97314.75;;;8.01;100.00
21096;BME280;10706;49.036;12.112;2023-05-16T04:15:09;97310.13;;;8.08;100.00
21096;BME280;10706;49.036;12.112;2023-05-16T04:17:35;97311.28;;;8.12;100.00
21096;BME280;10706;49.036;12.112;2023-05-16T04:20:01;97314.56;;;8.26;100.00
21096;BME280;10706;49.036;12.112;2023-05-16T04:22:27;97310.16;;;8.32;100.00
21096;BME280;10706;49.036;12.112;2023-05-16T04:24:53;97310.16;;;8.32;100.00
21096;BME280;10706;49.036;12.112;2023-05-16T04:27:19;97307.50;;;8.32;100.00
21096;BME280;10706;49.036;12.112;2023-05-16T04:29:44;97308.19;;;8.27;100.00
21096;BME280;10706;49.036;12.112;2023-05-16T04:32:10;97313.28;;;8.29;100.00
21096;BME280;10706;49.036;12.112;2023-05-16T04:34:36;97312.81;;;8.32;100.00
21096;BME280;10706;49.036;12.112;2023-05-16T04:37:06;97305.44;;;8.46;100.00
21096;BME280;10706;49.036;12.112;2023-05-16T04:39:34;97313.75;;;8.61;100.00
21096;BME280;10706;49.036;12.112;2023-05-16T04:42:00;97309.09;;;8.80;100.00
21096;BME280;10706;49.036;12.112;2023-05-16T04:44:27;97309.47;;;8.72;100.00
21096;BME280;10706;49.036;12.112;2023-05-16T04:46:53;97320.94;;;8.61;100.00
21096;BME280;10706;49.036;12.112;2023-05-16T04:49:20;97315.84;;;8.71;100.00
21096;BME280;10706;49.036;12.112;2023-05-16T04:51:46;97316.19;;;8.63;100.00
21096;BME280;10706;49.036;12.112;2023-05-16T04:54:13;97318.72;;;8.57;100.00
21096;BME280;10706;49.036;12.112;2023-05-16T04:56:39;97316.31;;;8.68;100.00
21096;BME280;10706;49.036;12.112;2023-05-16T04:59:05;97315.00;;;8.94;100.00
21096;BME280;10706;49.036;12.112;2023-05-16T05:01:31;97316.03;;;8.93;100.00
21096;BME280;10706;49.036;12.112;2023-05-16T05:03:56;97315.25;;;8.81;100.00
21096;BME280;10706;49.036;12.112;2023-05-16T05:06:22;97316.41;;;8.85;100.00
21096;BME280;10706;49.036;12.112;2023-05-16T05:08:48;97316.00;;;9.05;100.00
21096;BME280;10706;49.036;12.112;2023-05-16T05:11:14;97304.84;;;9.20;100.00
21096;BME280;10706;49.036;12.112;2023-05-16T05:13:40;97316.84;;;9.34;100.00
21096;BME280;10706;49.036;12.112;2023-05-16T05:16:05;97310.41;;;9.47;100.00
21096;BME280;10706;49.036;12.112;2023-05-16T05:18:32;97319.19;;;9.59;100.00
21096;BME280;10706;49.036;12.112;2023-05-16T05:20:59;97315.00;;;9.80;100.00
21096;BME280;10706;49.036;12.112;2023-05-16T05:23:24;97312.09;;;9.82;99.94
21096;BME280;10706;49.036;12.112;2023-05-16T05:25:50;97322.59;;;9.88;100.00
21096;BME280;10706;49.036;12.112;2023-05-16T05:28:16;97316.47;;;9.88;100.00
21096;BME280;10706;49.036;12.112;2023-05-16T05:30:42;97321.41;;;9.96;100.00
21096;BME280;10706;49.036;12.112;2023-05-16T05:33:09;97317.06;;;10.07;100.00
21096;BME280;10706;49.036;12.112;2023-05-16T05:35:35;97312.84;;;10.28;99.58
21096;BME280;10706;49.036;12.112;2023-05-16T05:38:01;97317.31;;;10.39;99.93
21096;BME280;10706;49.036;12.112;2023-05-16T05:40:27;97319.22;;;10.61;99.47
21096;BME280;10706;49.036;12.112;2023-05-16T05:42:52;97301.75;;;10.70;98.82
21096;BME280;10706;49.036;12.112;2023-05-16T05:45:18;97309.59;;;11.21;95.14
21096;BME280;10706;49.036;12.112;2023-05-16T05:47:44;97308.09;;;11.08;94.84
21096;BME280;10706;49.036;12.112;2023-05-16T05:50:10;97315.72;;;10.99;93.85
21096;BME280;10706;49.036;12.112;2023-05-16T05:52:37;97315.31;;;11.07;92.71
21096;BME280;10706;49.036;12.112;2023-05-16T05:55:03;97310.38;;;10.99;93.22
21096;BME280;10706;49.036;12.112;2023-05-16T05:57:29;97312.63;;;11.07;92.97
21096;BME280;10706;49.036;12.112;2023-05-16T05:59:55;97313.50;;;10.91;93.97
21096;BME280;10706;49.036;12.112;2023-05-16T06:02:20;97313.66;;;10.84;94.96
21096;BME280;10706;49.036;12.112;2023-05-16T06:04:46;97310.06;;;10.96;95.76
21096;BME280;10706;49.036;12.112;2023-05-16T06:07:12;97318.28;;;10.89;94.91
21096;BME280;10706;49.036;12.112;2023-05-16T06:09:40;97315.31;;;11.07;93.78
21096;BME280;10706;49.036;12.112;2023-05-16T06:12:08;97315.72;;;10.99;95.51
21096;BME280;10706;49.036;12.112;2023-05-16T06:14:33;97309.34;;;11.00;95.16
21096;BME280;10706;49.036;12.112;2023-05-16T06:16:59;97312.25;;;10.99;95.49
21096;BME280;10706;49.036;12.112;2023-05-16T06:19:25;97312.06;;;11.05;95.30
21096;BME280;10706;49.036;12.112;2023-05-16T06:21:51;97309.13;;;11.29;95.08
21096;BME280;10706;49.036;12.112;2023-05-16T06:24:16;97307.94;;;11.42;93.77
21096;BME280;10706;49.036;12.112;2023-05-16T06:26:42;97297.44;;;11.35;94.97
21096;BME280;10706;49.036;12.112;2023-05-16T06:29:10;97297.66;;;11.83;92.37
21096;BME280;10706;49.036;12.112;2023-05-16T06:31:36;97298.94;;;12.08;90.91
21096;BME280;10706;49.036;12.112;2023-05-16T06:34:02;97297.13;;;12.13;90.65
21096;BME280;10706;49.036;12.112;2023-05-16T06:36:28;97298.56;;;12.26;90.40
21096;BME280;10706;49.036;12.112;2023-05-16T06:38:53;97306.44;;;12.43;90.54
21096;BME280;10706;49.036;12.112;2023-05-16T06:41:19;97307.03;;;12.50;89.06
21096;BME280;10706;49.036;12.112;2023-05-16T06:43:45;97299.47;;;12.90;86.45
21096;BME280;10706;49.036;12.112;2023-05-16T06:46:11;97298.94;;;12.93;88.07
21096;BME280;10706;49.036;12.112;2023-05-16T06:48:37;97307.97;;;12.71;87.83
21096;BME280;10706;49.036;12.112;2023-05-16T06:51:03;97312.88;;;12.90;87.69
21096;BME280;10706;49.036;12.112;2023-05-16T06:53:28;97317.22;;;13.06;86.33
21096;BME280;10706;49.036;12.112;2023-05-16T06:55:54;97315.34;;;13.01;88.44
21096;BME280;10706;49.036;12.112;2023-05-16T06:58:20;97314.72;;;13.42;86.07
21096;BME280;10706;49.036;12.112;2023-05-16T07:00:48;97307.81;;;13.77;85.30
21096;BME280;10706;49.036;12.112;2023-05-16T07:03:14;97311.34;;;13.93;83.25
21096;BME280;10706;49.036;12.112;2023-05-16T07:05:40;97305.41;;;14.11;80.70
21096;BME280;10706;49.036;12.112;2023-05-16T07:08:08;97306.50;;;14.15;79.68
21096;BME280;10706;49.036;12.112;2023-05-16T07:10:39;97305.69;;;13.89;81.08
21096;BME280;10706;49.036;12.112;2023-05-16T07:13:06;97307.03;;;13.82;81.01
21096;BME280;10706;49.036;12.112;2023-05-16T07:15:32;97315.06;;;13.76;81.65
21096;BME280;10706;49.036;12.112;2023-05-16T07:17:57;97311.03;;;13.74;80.84
21096;BME280;10706;49.036;12.112;2023-05-16T07:20:23;97325.03;;;13.91;81.98
21096;BME280;10706;49.036;12.112;2023-05-16T07:22:49;97318.56;;;14.33;77.88
21096;BME280;10706;49.036;12.112;2023-05-16T07:25:15;97315.88;;;14.28;78.55
21096;BME280;10706;49.036;12.112;2023-05-16T07:27:41;97326.63;;;14.69;76.44
21096;BME280;10706;49.036;12.112;2023-05-16T07:30:10;97325.78;;;14.89;77.83
21096;BME280;10706;49.036;12.112;2023-05-16T07:32:36;97320.09;;;15.01;76.23
21096;BME280;10706;49.036;12.112;2023-05-16T07:35:03;97317.25;;;15.37;76.24
21096;BME280;10706;49.036;12.112;2023-05-16T07:37:29;97306.31;;;15.73;72.95
21096;BME280;10706;49.036;12.112;2023-05-16T07:39:55;97305.50;;;15.78;72.21
21096;BME280;10706;49.036;12.112;2023-05-16T07:42:20;97305.81;;;15.66;73.16
21096;BME280;10706;49.036;12.112;2023-05-16T07:44:46;97301.47;;;16.15;70.14
21096;BME280;10706;49.036;12.112;2023-05-16T07:47:12;97306.59;;;16.40;67.32
21096;BME280;10706;49.036;12.112;2023-05-16T07:49:38;97302.41;;;16.29;68.65
21096;BME280;10706;49.036;12.112;2023-05-16T07:52:04;97303.78;;;16.26;68.74
21096;BME280;10706;49.036;12.112;2023-05-16T07:54:31;97307.88;;;16.19;70.60
21096;BME280;10706;49.036;12.112;2023-05-16T07:56:57;97305.44;;;16.22;69.92
21096;BME280;10706;49.036;12.112;2023-05-16T07:59:24;97312.06;;;16.01;69.46
21096;BME280;10706;49.036;12.112;2023-05-16T08:01:50;97314.59;;;16.21;69.47
21096;BME280;10706;49.036;12.112;2023-05-16T08:04:16;97324.47;;;15.97;69.22
21096;BME280;10706;49.036;12.112;2023-05-16T08:06:41;97327.28;;;15.76;72.33
21096;BME280;10706;49.036;12.112;2023-05-16T08:09:07;97315.94;;;16.24;69.15
21096;BME280;10706;49.036;12.112;2023-05-16T08:11:34;97315.94;;;16.53;68.99
21096;BME280;10706;49.036;12.112;2023-05-16T08:14:00;97317.19;;;16.61;66.21
21096;BME280;10706;49.036;12.112;2023-05-16T08:16:26;97310.84;;;16.17;68.64
21096;BME280;10706;49.036;12.112;2023-05-16T08:18:52;97310.31;;;16.20;70.06
21096;BME280;10706;49.036;12.112;2023-05-16T08:21:17;97314.88;;;16.20;71.67
21096;BME280;10706;49.036;12.112;2023-05-16T08:23:43;97315.41;;;16.22;70.95
21096;BME280;10706;49.036;12.112;2023-05-16T08:26:09;97313.81;;;16.50;68.32
21096;BME280;10706;49.036;12.112;2023-05-16T08:28:34;97316.75;;;16.19;69.11
21096;BME280;10706;49.036;12.112;2023-05-16T08:31:00;97320.69;;;16.32;69.43
21096;BME280;10706;49.036;12.112;2023-05-16T08:33:26;97316.44;;;16.26;69.14
21096;BME280;10706;49.036;12.112;2023-05-16T08:35:51;97315.41;;;16.22;69.99
21096;BME280;10706;49.036;12.112;2023-05-16T08:38:18;97315.72;;;16.74;67.50
21096;BME280;10706;49.036;12.112;2023-05-16T08:40:43;97316.47;;;16.79;68.20
21096;BME280;10706;49.036;12.112;2023-05-16T08:43:10;97320.16;;;17.37;65.13
21096;BME280;10706;49.036;12.112;2023-05-16T08:45:36;97316.69;;;17.36;65.04
21096;BME280;10706;49.036;12.112;2023-05-16T08:48:04;97310.56;;;17.49;66.36
21096;BME280;10706;49.036;12.112;2023-05-16T08:50:31;97299.25;;;17.66;65.40
21096;BME280;10706;49.036;12.112;2023-05-16T08:52:57;97305.47;;;18.05;61.17
21096;BME280;10706;49.036;12.112;2023-05-16T08:55:24;97310.22;;;18.13;59.14
21096;BME280;10706;49.036;12.112;2023-05-16T08:57:52;97309.09;;;17.57;66.39
21096;BME280;10706;49.036;12.112;2023-05-16T09:00:19;97308.97;;;17.86;65.03
21096;BME280;10706;49.036;12.112;2023-05-16T09:02:45;97305.09;;;18.12;61.76
21096;BME280;10706;49.036;12.112;2023-05-16T09:05:14;97299.41;;;17.94;62.60
21096;BME280;10706;49.036;12.112;2023-05-16T09:07:41;97300.28;;;17.71;62.31
21096;BME280;10706;49.036;12.112;2023-05-16T09:10:08;97299.53;;;17.84;62.82
21096;BME280;10706;49.036;12.112;2023-05-16T09:12:34;97291.91;;;17.91;61.64
21096;BME280;10706;49.036;12.112;2023-05-16T09:15:05;97290.16;;;18.00;61.39
21096;BME280;10706;49.036;12.112;2023-05-16T09:17:41;97295.47;;;17.86;60.52
21096;BME280;10706;49.036;12.112;2023-05-16T09:20:12;97300.75;;;17.97;59.69
21096;BME280;10706;49.036;12.112;2023-05-16T09:22:39;97301.06;;;18.09;60.33
21096;BME280;10706;49.036;12.112;2023-05-16T09:25:06;97302.75;;;18.05;58.75
21096;BME280;10706;49.036;12.112;2023-05-16T09:27:32;97300.53;;;17.93;59.67
21096;BME280;10706;49.036;12.112;2023-05-16T09:29:58;97304.16;;;18.02;59.91
21096;BME280;10706;49.036;12.112;2023-05-16T09:32:24;97301.16;;;18.04;59.63
21096;BME280;10706;49.036;12.112;2023-05-16T09:34:53;97294.78;;;18.14;59.78
21096;BME280;10706;49.036;12.112;2023-05-16T09:37:21;97295.22;;;18.21;61.25
21096;BME280;10706;49.036;12.112;2023-05-16T09:39:52;97290.63;;;18.21;59.06
21096;BME280;10706;49.036;12.112;2023-05-16T09:42:20;97292.03;;;18.00;60.23
21096;BME280;10706;49.036;12.112;2023-05-16T09:44:53;97287.66;;;18.37;58.71
21096;BME280;10706;49.036;12.112;2023-05-16T09:47:21;97290.56;;;18.08;60.05
21096;BME280;10706;49.036;12.112;2023-05-16T09:49:51;97297.78;;;17.36;61.20
21096;BME280;10706;49.036;12.112;2023-05-16T09:52:18;97287.69;;;16.75;63.95
21096;BME280;10706;49.036;12.112;2023-05-16T09:54:46;97286.09;;;16.15;67.86
21096;BME280;10706;49.036;12.112;2023-05-16T09:57:19;97283.50;;;15.60;72.51
21096;BME280;10706;49.036;12.112;2023-05-16T09:59:45;97283.63;;;15.40;78.99
21096;BME280;10706;49.036;12.112;2023-05-16T10:02:12;97291.78;;;15.24;75.77
21096;BME280;10706;49.036;12.112;2023-05-16T10:04:38;97290.84;;;14.84;79.80
21096;BME280;10706;49.036;12.112;2023-05-16T10:07:05;97300.31;;;14.46;83.43
21096;BME280;10706;49.036;12.112;2023-05-16T10:09:34;97291.44;;;14.30;87.24
21096;BME280;10706;49.036;12.112;2023-05-16T10:12:02;97309.19;;;13.95;89.37
21096;BME280;10706;49.036;12.112;2023-05-16T10:14:35;97305.41;;;13.86;90.12
21096;BME280;10706;49.036;12.112;2023-05-16T10:17:03;97312.38;;;13.71;92.34
21096;BME280;10706;49.036;12.112;2023-05-16T10:19:32;97310.94;;;13.33;86.69
21096;BME280;10706;49.036;12.112;2023-05-16T10:22:05;97306.41;;;12.80;82.87
21096;BME280;10706;49.036;12.112;2023-05-16T10:27:07;97297.34;;;12.44;93.03
21096;BME280;10706;49.036;12.112;2023-05-16T10:29:33;97295.72;;;12.43;94.17
21096;BME280;10706;49.036;12.112;2023-05-16T10:32:00;97298.41;;;12.43;93.81
21096;BME280;10706;49.036;12.112;2023-05-16T10:34:28;97294.16;;;12.47;98.36
21096;BME280;10706;49.036;12.112;2023-05-16T10:36:54;97306.78;;;12.57;98.76
21096;BME280;10706;49.036;12.112;2023-05-16T10:39:20;97305.00;;;12.68;98.33
21096;BME280;10706;49.036;12.112;2023-05-16T10:41:47;97296.47;;;12.81;100.00
21096;BME280;10706;49.036;12.112;2023-05-16T10:44:13;97291.97;;;12.87;100.00
21096;BME280;10706;49.036;12.112;2023-05-16T10:46:42;97290.63;;;12.84;99.73
21096;BME280;10706;49.036;12.112;2023-05-16T10:49:24;97294.34;;;12.83;99.05
21096;BME280;10706;49.036;12.112;2023-05-16T10:52:11;97316.28;;;12.80;99.52
21096;BME280;10706;49.036;12.112;2023-05-16T10:54:40;97321.59;;;12.70;98.99
21096;BME280;10706;49.036;12.112;2023-05-16T10:57:15;97320.97;;;12.57;100.00
21096;BME280;10706;49.036;12.112;2023-05-16T10:59:45;97326.06;;;12.54;100.00
21096;BME280;10706;49.036;12.112;2023-05-16T11:02:32;97322.03;;;12.51;100.00
21096;BME280;10706;49.036;12.112;2023-05-16T11:05:01;97325.22;;;12.48;100.00
21096;BME280;10706;49.036;12.112;2023-05-16T11:07:35;97330.44;;;12.33;100.00
21096;BME280;10706;49.036;12.112;2023-05-16T11:10:07;97332.84;;;12.29;100.00
21096;BME280;10706;49.036;12.112;2023-05-16T11:12:48;97330.16;;;12.29;100.00
21096;BME280;10706;49.036;12.112;2023-05-16T11:15:26;97321.56;;;12.22;100.00
21096;BME280;10706;49.036;12.112;2023-05-16T11:18:15;97318.28;;;12.15;100.00
21096;BME280;10706;49.036;12.112;2023-05-16T11:20:41;97324.72;;;12.19;100.00
21096;BME280;10706;49.036;12.112;2023-05-16T11:23:17;97327.41;;;12.19;100.00
21096;BME280;10706;49.036;12.112;2023-05-16T11:25:46;97324.47;;;12.20;100.00
21096;BME280;10706;49.036;12.112;2023-05-16T11:28:13;97326.91;;;12.22;100.00
21096;BME280;10706;49.036;12.112;2023-05-16T11:30:58;97308.75;;;12.29;100.00
21096;BME280;10706;49.036;12.112;2023-05-16T11:33:24;97313.63;;;12.37;100.00
21096;BME280;10706;49.036;12.112;2023-05-16T11:36:07;97307.28;;;12.49;100.00
21096;BME280;10706;49.036;12.112;2023-05-16T11:38:34;97310.50;;;12.51;100.00
21096;BME280;10706;49.036;12.112;2023-05-16T11:41:07;97312.63;;;12.49;97.01
21096;BME280;10706;49.036;12.112;2023-05-16T11:43:42;97316.06;;;12.44;96.98
21096;BME280;10706;49.036;12.112;2023-05-16T11:46:14;97326.56;;;12.51;98.25
21096;BME280;10706;49.036;12.112;2023-05-16T11:48:41;97340.75;;;12.51;100.00
21096;BME280;10706;49.036;12.112;2023-05-16T11:51:08;97337.09;;;12.62;98.32
21096;BME280;10706;49.036;12.112;2023-05-16T11:53:34;97339.19;;;12.55;100.00
21096;BME280;10706;49.036;12.112;2023-05-16T11:56:02;97331.47;;;12.64;98.52
21096;BME280;10706;49.036;12.112;2023-05-16T11:58:28;97330.69;;;12.63;97.66
21096;BME280;10706;49.036;12.112;2023-05-16T12:00:54;97323.94;;;12.61;93.50
21096;BME280;10706;49.036;12.112;2023-05-16T12:03:20;97336.59;;;12.66;92.46
21096;BME280;10706;49.036;12.112;2023-05-16T12:05:53;97325.31;;;12.63;94.19
21096;BME280;10706;49.036;12.112;2023-05-16T12:08:20;97325.91;;;12.71;95.73
21096;BME280;10706;49.036;12.112;2023-05-16T12:10:48;97336.06;;;12.69;95.13
21096;BME280;10706;49.036;12.112;2023-05-16T12:13:20;97329.69;;;12.75;88.28
21096;BME280;10706;49.036;12.112;2023-05-16T12:15:47;97328.91;;;12.84;92.04
21096;BME280;10706;49.036;12.112;2023-05-16T12:18:14;97325.28;;;13.11;89.40
21096;BME280;10706;49.036;12.112;2023-05-16T12:20:41;97321.34;;;13.24;86.28
21096;BME280;10706;49.036;12.112;2023-05-16T12:23:12;97328.94;;;13.43;90.27
21096;BME280;10706;49.036;12.112;2023-05-16T12:25:38;97329.78;;;13.58;88.31
21096;BME280;10706;49.036;12.112;2023-05-16T12:28:12;97331.88;;;13.41;85.60
21096;BME280;10706;49.036;12.112;2023-05-16T12:30:43;97324.06;;;13.34;85.79
21096;BME280;10706;49.036;12.112;2023-05-16T12:33:14;97332.31;;;13.22;84.21
21096;BME280;10706;49.036;12.112;2023-05-16T12:35:42;97331.91;;;13.46;88.71
21096;BME280;10706;49.036;12.112;2023-05-16T12:38:13;97329.72;;;13.33;86.05
21096;BME280;10706;49.036;12.112;2023-05-16T12:40:41;97332.78;;;13.09;85.54
21096;BME280;10706;49.036;12.112;2023-05-16T12:43:19;97328.53;;;13.18;84.86
21096;BME280;10706;49.036;12.112;2023-05-16T12:45:54;97335.09;;;13.43;87.99
21096;BME280;10706;49.036;12.112;2023-05-16T12:48:21;97345.63;;;13.65;92.09
21096;BME280;10706;49.036;12.112;2023-05-16T12:50:47;97338.41;;;13.76;93.11
21096;BME280;10706;49.036;12.112;2023-05-16T12:53:17;97349.16;;;13.91;94.12
21096;BME280;10706;49.036;12.112;2023-05-16T12:55:43;97345.69;;;14.01;93.34
21096;BME280;10706;49.036;12.112;2023-05-16T12:58:10;97353.47;;;14.13;94.26
21096;BME280;10706;49.036;12.112;2023-05-16T13:00:36;97352.44;;;14.19;93.43
21096;BME280;10706;49.036;12.112;2023-05-16T13:03:04;97359.94;;;14.07;90.67